Aleppo International Airport

Airport
ICAO code: 
OSAP
IATA Code: 
ALP
Summary
ICAO Region: 
MID
Territory: 
Location: 
Aleppo, Halab
Serving: 
Aleppo
Elevation: 
1276 ft
Coordinates: 
Aerial View: 
36° 10' 50.43" N, 37° 13' 27.689" E
Metar
Observation
OSAP 081800Z 00000KT 8000-RA BKN026 OVC100 10/08 Q1013
Station
Aleppo International Airport
Date/Time
2021-12-08 18:00:00
Wind direction
Wind speed
00 kts
Lowest cloud amount
broken clouds
Temperature
10°C
Dew point
8°C
Humidity
87%
QNH
1013 hPa
Weather condition
light rain

Aleppo International Airport is an international airport serving Aleppo, Syria. The airport serves as a secondary hub for Syrian Air.

Climatology

Hot Desert Climate (Köppen climate classification BWh) - Hot desert climates are typically found in the subtropics where there is unbroken sunshine for the whole year due to the stable descending air and high pressure, little or no precipitation. Maximum temperatures of 40°C to 45°C are not uncommon, particularly during the warmer months of the year. During colder periods of the year, night-time temperatures can drop to freezing or below due to the exceptional radiation loss under the clear skies. However, very rarely do temperatures drop far below freezing.

Runways

Designator Length Width Surface Rops
9/27 2910 45 ASP Yes/Yes
Airport map: 
Aerial View: 

SKYbrary Partners:

Safety knowledge contributed by: